Warning: Javascript must be enabled to use all the features on this page!


Page Loading - Please Wait...

Click to hideNews Bulletins

Peak Streamflow for the Nation

USGS 04269000 ST. REGIS RIVER AT BRASHER CENTER NY

St. Lawrence County, New York
Hydrologic Unit Code 04150306
Latitude  44°51'49", Longitude  74°46'44" NAD83
Drainage area 612  square miles
Contributing drainage area 612  square miles
Gage datum 216.83 feet above NAVD88
Output formats
Table
Graph
Tab-separated file
peakfq (watstore) format
Reselect output format
Water
Year
Date Gage
Height
(feet)
Stream-
flow
(cfs)
1911 1911-04-07 10.101,3 16,200
1912 1912-04-06 9.003 15,800
1913 1913-03-27 7.302,3 7,880
1914 1914-03-27 9.101,3 12,400
1915 1915-04-12 6.803 6,650
1916 1916-04-02 10.201,3,6 14,700
1917 1917-04-03 9.60 6,310
1919 1919-03-18 9.50 5,850
1920 1920-03-18 10.58 8,700
1921 1921-03-10 10.17 7,460
1922 1922-04-12 10.205 7,530
1923 1923-04-09 9.75 6,430
1924 1924-04-07 9.372 5,670
1925 1925-02-12 9.482 5,880
1926 1926-04-26 11.40 11,800
1927 1927-03-19 9.20 5,350
1928 1927-11-18 11.10 10,700
1929 1929-03-15 9.402 5,820
1930 1930-04-02 10.30 8,200
1931 1931-04-11 9.23 5,420
1933 1932-10-07 9.98 7,300
1934 1934-04-02 9.50 6,060
1935 1935-05-01 9.312 5,640
1936 1936-03-20 9.90 7,080
1937 1937-04-06 12.822 16,800
1938 1938-03-24 11.38 11,600
1939 1939-04-28 9.122 5,220
1940 1940-04-19 9.602 6,310
1941 1941-04-15 9.27 5,550
1942 1942-04-16 9.89 7,050
1943 1943-05-12 10.67 9,310
1944 1944-04-25 10.54 9,040
1945 1945-04-01 9.38 5,890
1946 1946-03-15 9.81 6,990
1947 1947-04-13 10.712 9,540
1948 1948-03-23 10.082 7,720
1949 1949-03-28 10.102 7,780
1950 1950-03-28 11.25 11,200
1951 1951-04-01 10.58 9,150
1952 1952-04-06 9.062 5,140
1953 1953-03-27 9.31 5,720
1954 1954-04-09 10.76 9,840
1955 1955-03-12 12.002 13,900
1956 1956-04-30 10.75 9,810
1957 1957-03-16 8.28 3,510
1958 1958-04-18 9.27 5,720
1959 1959-04-06 9.54 6,400
1960 1960-04-04 10.59 9,330
1961 1961-04-24 8.82 4,660
1962 1962-04-09 9.33 5,880
1963 1963-04-05 11.08 10,800
1964 1964-04-15 8.68 4,350
1965 1965-04-13 8.77 4,540
1966 1966-03-25 8.80 4,610
1967 1967-04-04 9.38 6,000
1968 1968-03-29 9.14 5,410
1969 1969-04-11 9.99 7,600
1970 1970-04-25 9.20 5,500
1971 1971-05-04 10.74 9,780
1972 1972-05-04 10.40 8,770
1973 1973-04-02 10.002 7,830
1974 1974-04-05 11.26 11,400
1975 1975-04-20 10.29 8,450
1976 1976-03-28 10.37 8,680
1977 1977-03-15 9.972 7,550
1978 1978-04-14 10.15 8,050
1979 1979-03-25 9.70 6,820
1980 1980-04-10 8.68 4,340
1981 1981-02-22 9.83 7,170
1982 1982-04-18 10.27 8,390
1983 1983-04-26 8.99 5,050
1984 1983-12-15 10.032 7,710
1985 1984-12-30 11.80 13,100
1986 1986-03-31 9.45 6,120
1987 1987-04-01 9.402 5,990
1988 1988-03-27 9.19 5,480
1989 1989-03-29 10.75 9,720
1990 1990-03-18 11.37 11,700
1991 1991-04-10 10.06 7,720
1992 1992-04-23 9.92 7,470
1993 1993-04-11 11.43 11,800
1994 1994-04-17 10.85 10,000
1995 1995-01-16 10.02 7,730
1996 1996-01-20 10.72 9,670
1997 1996-11-09 10.75 9,750
1998 1998-03-31 11.16 11,000
1999 1999-04-04 9.182 5,630
2000 2000-05-11 10.60 9,320
2001 2001-04-13 10.14 8,050
2002 2002-04-15 9.20 5,670
2003 2003-03-30 10.09 7,920
2004 2004-04-15 9.422 6,200
2005 2005-04-03 10.441 8,2002
2006 2006-03-14 9.092 5,410
2007 2006-12-02 8.952 5,090
2008 2008-04-13 10.33 8,570
2009 2009-04-08 8.472 4,050
2010 2010-08-23 9.82 7,210
2011 2011-05-17 10.54 9,150
2012 2012-03-18 8.52 4,150
2013 2013-06-12 10.04 7,780
2014 2014-04-15 12.25 14,400
2015 2015-04-15 9.47 6,320
2016 2016-03-11 9.25 5,790
2017 2017-04-07 10.19 8,190
2018 2018-05-01 9.652 6,760
2019 2019-04-21 10.15 8,070
2020 2020-01-12 9.71 6,920
?
  Peak Gage-Height Qualification Codes.
?
  Peak Streamflow Qualification Codes.